sensor_id;sensor_type;location;lat;lon;timestamp;P1;durP1;ratioP1;P2;durP2;ratioP2
4317;SDS011;2172;53.576;9.934;2022-08-19T00:01:58;13.40;;;11.90;;
4317;SDS011;2172;53.576;9.934;2022-08-19T00:04:27;14.43;;;12.90;;
4317;SDS011;2172;53.576;9.934;2022-08-19T00:06:56;13.77;;;12.37;;
4317;SDS011;2172;53.576;9.934;2022-08-19T00:09:24;16.00;;;14.33;;
4317;SDS011;2172;53.576;9.934;2022-08-19T00:11:53;15.33;;;13.73;;
4317;SDS011;2172;53.576;9.934;2022-08-19T00:14:22;16.37;;;14.57;;
4317;SDS011;2172;53.576;9.934;2022-08-19T00:16:50;16.50;;;14.80;;
4317;SDS011;2172;53.576;9.934;2022-08-19T00:19:20;17.13;;;15.27;;
4317;SDS011;2172;53.576;9.934;2022-08-19T00:21:48;28.63;;;21.93;;
4317;SDS011;2172;53.576;9.934;2022-08-19T00:24:16;19.80;;;17.70;;
4317;SDS011;2172;53.576;9.934;2022-08-19T00:26:44;24.50;;;20.93;;
4317;SDS011;2172;53.576;9.934;2022-08-19T00:29:13;24.20;;;20.23;;
4317;SDS011;2172;53.576;9.934;2022-08-19T00:31:42;23.80;;;20.93;;
4317;SDS011;2172;53.576;9.934;2022-08-19T00:34:10;27.23;;;24.33;;
4317;SDS011;2172;53.576;9.934;2022-08-19T00:36:39;27.50;;;23.83;;
4317;SDS011;2172;53.576;9.934;2022-08-19T00:39:07;28.97;;;22.33;;
4317;SDS011;2172;53.576;9.934;2022-08-19T00:41:35;26.30;;;22.70;;
4317;SDS011;2172;53.576;9.934;2022-08-19T00:44:04;27.50;;;22.13;;
4317;SDS011;2172;53.576;9.934;2022-08-19T00:46:33;29.53;;;25.80;;
4317;SDS011;2172;53.576;9.934;2022-08-19T00:49:02;27.03;;;23.23;;
4317;SDS011;2172;53.576;9.934;2022-08-19T00:51:33;31.50;;;25.87;;
4317;SDS011;2172;53.576;9.934;2022-08-19T00:54:03;37.63;;;28.70;;
4317;SDS011;2172;53.576;9.934;2022-08-19T00:56:30;41.13;;;29.93;;
4317;SDS011;2172;53.576;9.934;2022-08-19T00:58:58;38.50;;;29.93;;
4317;SDS011;2172;53.576;9.934;2022-08-19T01:01:27;36.30;;;29.10;;
4317;SDS011;2172;53.576;9.934;2022-08-19T01:03:54;41.33;;;30.60;;
4317;SDS011;2172;53.576;9.934;2022-08-19T01:06:22;33.80;;;27.80;;
4317;SDS011;2172;53.576;9.934;2022-08-19T01:08:49;36.20;;;27.67;;
4317;SDS011;2172;53.576;9.934;2022-08-19T01:11:18;32.00;;;26.10;;
4317;SDS011;2172;53.576;9.934;2022-08-19T01:13:46;30.70;;;25.73;;
4317;SDS011;2172;53.576;9.934;2022-08-19T01:16:13;27.97;;;24.77;;
4317;SDS011;2172;53.576;9.934;2022-08-19T01:18:42;29.87;;;23.77;;
4317;SDS011;2172;53.576;9.934;2022-08-19T01:21:11;32.90;;;25.77;;
4317;SDS011;2172;53.576;9.934;2022-08-19T01:23:44;36.20;;;23.97;;
4317;SDS011;2172;53.576;9.934;2022-08-19T01:26:12;26.40;;;22.10;;
4317;SDS011;2172;53.576;9.934;2022-08-19T01:28:41;32.93;;;25.17;;
4317;SDS011;2172;53.576;9.934;2022-08-19T01:31:12;31.17;;;23.67;;
4317;SDS011;2172;53.576;9.934;2022-08-19T01:33:41;28.13;;;24.50;;
4317;SDS011;2172;53.576;9.934;2022-08-19T01:36:10;30.63;;;24.57;;
4317;SDS011;2172;53.576;9.934;2022-08-19T01:38:40;32.27;;;23.37;;
4317;SDS011;2172;53.576;9.934;2022-08-19T01:41:11;28.70;;;22.43;;
4317;SDS011;2172;53.576;9.934;2022-08-19T01:43:38;29.93;;;23.37;;
4317;SDS011;2172;53.576;9.934;2022-08-19T01:46:06;32.50;;;25.77;;
4317;SDS011;2172;53.576;9.934;2022-08-19T01:48:34;38.63;;;25.20;;
4317;SDS011;2172;53.576;9.934;2022-08-19T01:51:03;32.20;;;25.60;;
4317;SDS011;2172;53.576;9.934;2022-08-19T01:53:30;36.30;;;25.73;;
4317;SDS011;2172;53.576;9.934;2022-08-19T01:55:58;38.07;;;27.47;;
4317;SDS011;2172;53.576;9.934;2022-08-19T01:58:29;39.40;;;26.53;;
4317;SDS011;2172;53.576;9.934;2022-08-19T02:00:58;35.97;;;26.20;;
4317;SDS011;2172;53.576;9.934;2022-08-19T02:03:26;45.40;;;28.70;;
4317;SDS011;2172;53.576;9.934;2022-08-19T02:05:54;42.43;;;29.23;;
4317;SDS011;2172;53.576;9.934;2022-08-19T02:08:22;36.00;;;26.47;;
4317;SDS011;2172;53.576;9.934;2022-08-19T02:10:50;44.20;;;27.87;;
4317;SDS011;2172;53.576;9.934;2022-08-19T02:13:18;34.73;;;26.17;;
4317;SDS011;2172;53.576;9.934;2022-08-19T02:15:47;33.17;;;25.87;;
4317;SDS011;2172;53.576;9.934;2022-08-19T02:18:15;39.23;;;26.47;;
4317;SDS011;2172;53.576;9.934;2022-08-19T02:20:43;38.93;;;26.93;;
4317;SDS011;2172;53.576;9.934;2022-08-19T02:23:12;38.40;;;29.70;;
4317;SDS011;2172;53.576;9.934;2022-08-19T02:25:40;38.47;;;27.00;;
4317;SDS011;2172;53.576;9.934;2022-08-19T02:28:09;40.53;;;27.70;;
4317;SDS011;2172;53.576;9.934;2022-08-19T02:30:37;38.93;;;28.23;;
4317;SDS011;2172;53.576;9.934;2022-08-19T02:33:08;44.23;;;28.33;;
4317;SDS011;2172;53.576;9.934;2022-08-19T02:35:35;44.47;;;28.37;;
4317;SDS011;2172;53.576;9.934;2022-08-19T02:38:03;40.00;;;27.80;;
4317;SDS011;2172;53.576;9.934;2022-08-19T02:40:48;44.50;;;27.50;;
4317;SDS011;2172;53.576;9.934;2022-08-19T02:43:17;47.13;;;28.33;;
4317;SDS011;2172;53.576;9.934;2022-08-19T02:45:46;48.90;;;30.30;;
4317;SDS011;2172;53.576;9.934;2022-08-19T02:48:16;47.93;;;30.77;;
4317;SDS011;2172;53.576;9.934;2022-08-19T02:50:44;47.70;;;30.73;;
4317;SDS011;2172;53.576;9.934;2022-08-19T02:53:12;50.90;;;31.57;;
4317;SDS011;2172;53.576;9.934;2022-08-19T02:55:43;53.63;;;31.53;;
4317;SDS011;2172;53.576;9.934;2022-08-19T02:58:12;53.77;;;32.30;;
4317;SDS011;2172;53.576;9.934;2022-08-19T03:00:43;58.80;;;34.07;;
4317;SDS011;2172;53.576;9.934;2022-08-19T03:03:11;59.00;;;34.77;;
4317;SDS011;2172;53.576;9.934;2022-08-19T03:05:41;64.27;;;36.10;;
4317;SDS011;2172;53.576;9.934;2022-08-19T03:08:09;65.20;;;38.70;;
4317;SDS011;2172;53.576;9.934;2022-08-19T03:10:42;73.70;;;39.13;;
4317;SDS011;2172;53.576;9.934;2022-08-19T03:13:11;69.40;;;36.80;;
4317;SDS011;2172;53.576;9.934;2022-08-19T03:15:40;77.83;;;39.47;;
4317;SDS011;2172;53.576;9.934;2022-08-19T03:18:09;77.30;;;42.87;;
4317;SDS011;2172;53.576;9.934;2022-08-19T03:20:41;76.10;;;40.07;;
4317;SDS011;2172;53.576;9.934;2022-08-19T03:23:09;77.33;;;39.20;;
4317;SDS011;2172;53.576;9.934;2022-08-19T03:25:38;75.23;;;40.17;;
4317;SDS011;2172;53.576;9.934;2022-08-19T03:28:07;76.93;;;39.90;;
4317;SDS011;2172;53.576;9.934;2022-08-19T03:30:34;71.97;;;39.20;;
4317;SDS011;2172;53.576;9.934;2022-08-19T03:33:02;67.83;;;39.23;;
4317;SDS011;2172;53.576;9.934;2022-08-19T03:35:29;69.07;;;36.97;;
4317;SDS011;2172;53.576;9.934;2022-08-19T03:37:59;61.20;;;36.17;;
4317;SDS011;2172;53.576;9.934;2022-08-19T03:40:26;59.40;;;36.47;;
4317;SDS011;2172;53.576;9.934;2022-08-19T03:42:55;62.87;;;38.20;;
4317;SDS011;2172;53.576;9.934;2022-08-19T03:45:22;67.20;;;39.30;;
4317;SDS011;2172;53.576;9.934;2022-08-19T03:47:50;62.03;;;36.77;;
4317;SDS011;2172;53.576;9.934;2022-08-19T03:50:18;61.93;;;37.03;;
4317;SDS011;2172;53.576;9.934;2022-08-19T03:52:47;58.63;;;36.87;;
4317;SDS011;2172;53.576;9.934;2022-08-19T03:55:18;65.83;;;37.47;;
4317;SDS011;2172;53.576;9.934;2022-08-19T03:57:45;58.73;;;36.30;;
4317;SDS011;2172;53.576;9.934;2022-08-19T04:00:14;59.57;;;36.60;;
4317;SDS011;2172;53.576;9.934;2022-08-19T04:02:42;58.77;;;36.17;;
4317;SDS011;2172;53.576;9.934;2022-08-19T04:05:10;72.60;;;38.80;;
4317;SDS011;2172;53.576;9.934;2022-08-19T04:07:39;60.73;;;37.50;;
4317;SDS011;2172;53.576;9.934;2022-08-19T04:10:06;65.73;;;39.07;;
4317;SDS011;2172;53.576;9.934;2022-08-19T04:12:36;67.90;;;40.40;;
4317;SDS011;2172;53.576;9.934;2022-08-19T04:15:04;73.40;;;42.13;;
4317;SDS011;2172;53.576;9.934;2022-08-19T04:17:33;66.57;;;40.80;;
4317;SDS011;2172;53.576;9.934;2022-08-19T04:20:01;72.77;;;43.60;;
4317;SDS011;2172;53.576;9.934;2022-08-19T04:22:28;58.93;;;42.40;;
4317;SDS011;2172;53.576;9.934;2022-08-19T04:24:56;65.67;;;42.23;;
4317;SDS011;2172;53.576;9.934;2022-08-19T04:27:23;63.47;;;39.40;;
4317;SDS011;2172;53.576;9.934;2022-08-19T04:29:52;66.50;;;41.07;;
4317;SDS011;2172;53.576;9.934;2022-08-19T04:32:20;68.80;;;41.13;;
4317;SDS011;2172;53.576;9.934;2022-08-19T04:34:47;56.63;;;38.77;;
4317;SDS011;2172;53.576;9.934;2022-08-19T04:37:15;59.90;;;40.90;;
4317;SDS011;2172;53.576;9.934;2022-08-19T04:39:42;55.80;;;38.90;;
4317;SDS011;2172;53.576;9.934;2022-08-19T04:42:27;55.03;;;36.47;;
4317;SDS011;2172;53.576;9.934;2022-08-19T04:45:09;54.50;;;35.30;;
4317;SDS011;2172;53.576;9.934;2022-08-19T04:47:38;56.33;;;35.20;;
4317;SDS011;2172;53.576;9.934;2022-08-19T04:50:07;46.73;;;35.10;;
4317;SDS011;2172;53.576;9.934;2022-08-19T04:52:36;45.20;;;32.37;;
4317;SDS011;2172;53.576;9.934;2022-08-19T04:55:08;44.73;;;30.93;;
4317;SDS011;2172;53.576;9.934;2022-08-19T04:57:35;61.50;;;33.87;;
4317;SDS011;2172;53.576;9.934;2022-08-19T05:00:05;58.07;;;33.57;;
4317;SDS011;2172;53.576;9.934;2022-08-19T05:02:35;51.93;;;33.20;;
4317;SDS011;2172;53.576;9.934;2022-08-19T05:05:03;47.17;;;30.23;;
4317;SDS011;2172;53.576;9.934;2022-08-19T05:07:31;46.07;;;31.40;;
4317;SDS011;2172;53.576;9.934;2022-08-19T05:09:59;42.47;;;30.50;;
4317;SDS011;2172;53.576;9.934;2022-08-19T05:12:26;41.70;;;30.03;;
4317;SDS011;2172;53.576;9.934;2022-08-19T05:14:54;51.10;;;29.47;;
4317;SDS011;2172;53.576;9.934;2022-08-19T05:17:22;48.03;;;28.53;;
4317;SDS011;2172;53.576;9.934;2022-08-19T05:19:51;44.83;;;27.90;;
4317;SDS011;2172;53.576;9.934;2022-08-19T05:22:37;39.40;;;26.63;;
4317;SDS011;2172;53.576;9.934;2022-08-19T05:25:06;44.03;;;27.20;;
4317;SDS011;2172;53.576;9.934;2022-08-19T05:27:37;38.73;;;27.47;;
4317;SDS011;2172;53.576;9.934;2022-08-19T05:30:05;41.03;;;25.87;;
4317;SDS011;2172;53.576;9.934;2022-08-19T05:32:33;39.30;;;26.27;;
4317;SDS011;2172;53.576;9.934;2022-08-19T05:35:02;37.00;;;23.77;;
4317;SDS011;2172;53.576;9.934;2022-08-19T05:37:30;34.80;;;24.97;;
4317;SDS011;2172;53.576;9.934;2022-08-19T05:39:57;34.97;;;23.67;;
4317;SDS011;2172;53.576;9.934;2022-08-19T05:42:25;34.93;;;22.73;;
4317;SDS011;2172;53.576;9.934;2022-08-19T05:44:52;40.87;;;25.00;;
4317;SDS011;2172;53.576;9.934;2022-08-19T05:47:21;39.33;;;23.77;;
4317;SDS011;2172;53.576;9.934;2022-08-19T05:49:48;35.70;;;24.53;;
4317;SDS011;2172;53.576;9.934;2022-08-19T05:52:17;34.70;;;23.70;;
4317;SDS011;2172;53.576;9.934;2022-08-19T05:54:46;34.53;;;23.97;;
4317;SDS011;2172;53.576;9.934;2022-08-19T05:57:16;28.23;;;22.00;;
4317;SDS011;2172;53.576;9.934;2022-08-19T05:59:43;31.70;;;22.90;;
4317;SDS011;2172;53.576;9.934;2022-08-19T06:02:13;34.90;;;24.53;;
4317;SDS011;2172;53.576;9.934;2022-08-19T06:04:40;30.10;;;22.23;;
4317;SDS011;2172;53.576;9.934;2022-08-19T06:07:08;28.07;;;23.23;;
4317;SDS011;2172;53.576;9.934;2022-08-19T06:09:37;35.53;;;23.73;;
4317;SDS011;2172;53.576;9.934;2022-08-19T06:12:05;35.40;;;21.90;;
4317;SDS011;2172;53.576;9.934;2022-08-19T06:14:34;29.00;;;21.37;;
4317;SDS011;2172;53.576;9.934;2022-08-19T06:17:02;31.20;;;22.27;;
4317;SDS011;2172;53.576;9.934;2022-08-19T06:19:30;31.83;;;22.40;;
4317;SDS011;2172;53.576;9.934;2022-08-19T06:21:58;35.20;;;23.07;;
4317;SDS011;2172;53.576;9.934;2022-08-19T06:24:27;31.03;;;23.53;;
4317;SDS011;2172;53.576;9.934;2022-08-19T06:26:58;39.33;;;23.63;;
4317;SDS011;2172;53.576;9.934;2022-08-19T06:29:26;33.37;;;23.47;;
4317;SDS011;2172;53.576;9.934;2022-08-19T06:31:55;42.23;;;25.03;;
4317;SDS011;2172;53.576;9.934;2022-08-19T06:34:24;42.17;;;25.70;;
4317;SDS011;2172;53.576;9.934;2022-08-19T06:36:53;39.43;;;25.83;;
4317;SDS011;2172;53.576;9.934;2022-08-19T06:39:22;39.57;;;25.47;;
4317;SDS011;2172;53.576;9.934;2022-08-19T06:41:51;40.67;;;30.00;;
4317;SDS011;2172;53.576;9.934;2022-08-19T06:44:22;56.40;;;35.77;;
4317;SDS011;2172;53.576;9.934;2022-08-19T06:46:51;41.57;;;28.00;;
4317;SDS011;2172;53.576;9.934;2022-08-19T06:49:19;39.70;;;26.37;;
4317;SDS011;2172;53.576;9.934;2022-08-19T06:51:47;31.87;;;23.50;;
4317;SDS011;2172;53.576;9.934;2022-08-19T06:54:15;40.03;;;23.57;;
4317;SDS011;2172;53.576;9.934;2022-08-19T06:56:43;43.40;;;24.23;;
4317;SDS011;2172;53.576;9.934;2022-08-19T06:59:12;30.67;;;23.70;;
4317;SDS011;2172;53.576;9.934;2022-08-19T07:01:43;37.70;;;26.23;;
4317;SDS011;2172;53.576;9.934;2022-08-19T07:04:12;32.73;;;23.73;;
4317;SDS011;2172;53.576;9.934;2022-08-19T07:06:40;28.83;;;20.90;;
4317;SDS011;2172;53.576;9.934;2022-08-19T07:09:09;30.80;;;20.87;;
4317;SDS011;2172;53.576;9.934;2022-08-19T07:11:37;27.23;;;20.40;;
4317;SDS011;2172;53.576;9.934;2022-08-19T07:14:05;29.37;;;18.93;;
4317;SDS011;2172;53.576;9.934;2022-08-19T07:16:32;30.67;;;18.93;;
4317;SDS011;2172;53.576;9.934;2022-08-19T07:19:02;32.87;;;17.33;;
4317;SDS011;2172;53.576;9.934;2022-08-19T07:21:29;21.90;;;15.90;;
4317;SDS011;2172;53.576;9.934;2022-08-19T07:23:58;22.30;;;16.87;;
4317;SDS011;2172;53.576;9.934;2022-08-19T07:26:27;27.00;;;17.57;;
4317;SDS011;2172;53.576;9.934;2022-08-19T07:28:56;22.57;;;16.10;;
4317;SDS011;2172;53.576;9.934;2022-08-19T07:31:27;21.33;;;17.90;;
4317;SDS011;2172;53.576;9.934;2022-08-19T07:33:55;22.17;;;17.50;;
4317;SDS011;2172;53.576;9.934;2022-08-19T07:36:25;18.47;;;15.97;;
4317;SDS011;2172;53.576;9.934;2022-08-19T07:38:58;20.70;;;15.77;;
4317;SDS011;2172;53.576;9.934;2022-08-19T07:41:27;19.53;;;15.53;;
4317;SDS011;2172;53.576;9.934;2022-08-19T07:43:56;20.40;;;13.93;;
4317;SDS011;2172;53.576;9.934;2022-08-19T07:46:28;18.00;;;12.20;;
4317;SDS011;2172;53.576;9.934;2022-08-19T07:48:56;17.93;;;13.97;;
4317;SDS011;2172;53.576;9.934;2022-08-19T07:51:27;18.90;;;12.93;;
4317;SDS011;2172;53.576;9.934;2022-08-19T07:53:55;19.73;;;13.53;;
4317;SDS011;2172;53.576;9.934;2022-08-19T07:56:23;21.27;;;14.43;;
4317;SDS011;2172;53.576;9.934;2022-08-19T07:58:51;16.50;;;13.60;;
4317;SDS011;2172;53.576;9.934;2022-08-19T08:01:19;15.43;;;12.70;;
4317;SDS011;2172;53.576;9.934;2022-08-19T08:03:52;17.43;;;13.90;;
4317;SDS011;2172;53.576;9.934;2022-08-19T08:06:38;19.27;;;14.90;;
4317;SDS011;2172;53.576;9.934;2022-08-19T08:09:25;18.07;;;15.33;;
4317;SDS011;2172;53.576;9.934;2022-08-19T08:11:56;19.30;;;14.87;;
4317;SDS011;2172;53.576;9.934;2022-08-19T08:14:26;18.57;;;15.30;;
4317;SDS011;2172;53.576;9.934;2022-08-19T08:16:55;28.60;;;23.63;;
4317;SDS011;2172;53.576;9.934;2022-08-19T08:19:24;24.90;;;15.70;;
4317;SDS011;2172;53.576;9.934;2022-08-19T08:21:54;21.50;;;16.63;;
4317;SDS011;2172;53.576;9.934;2022-08-19T08:24:23;18.23;;;14.80;;
4317;SDS011;2172;53.576;9.934;2022-08-19T08:26:52;20.00;;;17.40;;
4317;SDS011;2172;53.576;9.934;2022-08-19T08:29:19;24.40;;;16.13;;
4317;SDS011;2172;53.576;9.934;2022-08-19T08:31:47;23.53;;;17.27;;
4317;SDS011;2172;53.576;9.934;2022-08-19T08:34:14;26.47;;;18.10;;
4317;SDS011;2172;53.576;9.934;2022-08-19T08:36:43;25.70;;;17.50;;
4317;SDS011;2172;53.576;9.934;2022-08-19T08:39:13;26.70;;;19.17;;
4317;SDS011;2172;53.576;9.934;2022-08-19T08:41:44;30.43;;;19.47;;
4317;SDS011;2172;53.576;9.934;2022-08-19T08:44:20;26.03;;;19.23;;
4317;SDS011;2172;53.576;9.934;2022-08-19T08:46:49;24.83;;;19.57;;
4317;SDS011;2172;53.576;9.934;2022-08-19T08:49:24;29.27;;;19.37;;
4317;SDS011;2172;53.576;9.934;2022-08-19T08:51:58;27.70;;;19.10;;
4317;SDS011;2172;53.576;9.934;2022-08-19T08:54:33;27.57;;;18.93;;
4317;SDS011;2172;53.576;9.934;2022-08-19T08:57:05;29.37;;;19.13;;
4317;SDS011;2172;53.576;9.934;2022-08-19T08:59:36;23.13;;;18.43;;
4317;SDS011;2172;53.576;9.934;2022-08-19T09:02:07;24.80;;;18.20;;
4317;SDS011;2172;53.576;9.934;2022-08-19T09:04:35;23.83;;;17.33;;
4317;SDS011;2172;53.576;9.934;2022-08-19T09:07:22;26.00;;;18.37;;
4317;SDS011;2172;53.576;9.934;2022-08-19T09:10:01;25.67;;;18.37;;
4317;SDS011;2172;53.576;9.934;2022-08-19T09:12:35;26.03;;;19.93;;
4317;SDS011;2172;53.576;9.934;2022-08-19T09:15:10;28.60;;;19.37;;
4317;SDS011;2172;53.576;9.934;2022-08-19T09:17:39;31.77;;;20.70;;
4317;SDS011;2172;53.576;9.934;2022-08-19T09:20:19;24.93;;;18.77;;
4317;SDS011;2172;53.576;9.934;2022-08-19T09:22:48;26.70;;;18.80;;
4317;SDS011;2172;53.576;9.934;2022-08-19T09:25:18;27.50;;;18.23;;
4317;SDS011;2172;53.576;9.934;2022-08-19T09:27:48;21.27;;;17.40;;
4317;SDS011;2172;53.576;9.934;2022-08-19T09:30:18;19.27;;;17.27;;
4317;SDS011;2172;53.576;9.934;2022-08-19T09:32:47;21.67;;;17.40;;
4317;SDS011;2172;53.576;9.934;2022-08-19T09:35:18;20.60;;;16.27;;
4317;SDS011;2172;53.576;9.934;2022-08-19T09:37:47;20.53;;;16.90;;
4317;SDS011;2172;53.576;9.934;2022-08-19T09:40:17;19.83;;;15.93;;
4317;SDS011;2172;53.576;9.934;2022-08-19T09:42:45;33.70;;;19.77;;
4317;SDS011;2172;53.576;9.934;2022-08-19T09:45:13;26.80;;;18.43;;
4317;SDS011;2172;53.576;9.934;2022-08-19T09:47:42;24.13;;;19.23;;
4317;SDS011;2172;53.576;9.934;2022-08-19T09:50:10;25.43;;;18.63;;
4317;SDS011;2172;53.576;9.934;2022-08-19T09:52:38;29.60;;;18.90;;
4317;SDS011;2172;53.576;9.934;2022-08-19T09:55:08;21.50;;;18.70;;
4317;SDS011;2172;53.576;9.934;2022-08-19T09:57:37;26.00;;;18.43;;
4317;SDS011;2172;53.576;9.934;2022-08-19T10:00:06;24.80;;;18.70;;
4317;SDS011;2172;53.576;9.934;2022-08-19T10:02:35;25.67;;;20.50;;
4317;SDS011;2172;53.576;9.934;2022-08-19T10:05:03;26.57;;;20.10;;
4317;SDS011;2172;53.576;9.934;2022-08-19T10:07:48;29.80;;;22.00;;
4317;SDS011;2172;53.576;9.934;2022-08-19T10:10:16;27.10;;;22.50;;
4317;SDS011;2172;53.576;9.934;2022-08-19T10:12:45;33.97;;;22.00;;
4317;SDS011;2172;53.576;9.934;2022-08-19T10:15:13;35.43;;;23.33;;
4317;SDS011;2172;53.576;9.934;2022-08-19T10:17:41;30.17;;;22.77;;
4317;SDS011;2172;53.576;9.934;2022-08-19T10:20:09;26.00;;;22.33;;
4317;SDS011;2172;53.576;9.934;2022-08-19T10:22:37;32.30;;;22.33;;
4317;SDS011;2172;53.576;9.934;2022-08-19T10:25:06;26.00;;;22.40;;
4317;SDS011;2172;53.576;9.934;2022-08-19T10:27:34;29.27;;;22.00;;
4317;SDS011;2172;53.576;9.934;2022-08-19T10:30:05;29.83;;;23.00;;
4317;SDS011;2172;53.576;9.934;2022-08-19T10:32:34;33.57;;;23.80;;
4317;SDS011;2172;53.576;9.934;2022-08-19T10:35:01;31.03;;;22.30;;
4317;SDS011;2172;53.576;9.934;2022-08-19T10:37:33;30.90;;;23.33;;
4317;SDS011;2172;53.576;9.934;2022-08-19T10:40:00;33.60;;;22.67;;
4317;SDS011;2172;53.576;9.934;2022-08-19T10:42:29;28.60;;;22.27;;
4317;SDS011;2172;53.576;9.934;2022-08-19T10:44:57;28.03;;;22.67;;
4317;SDS011;2172;53.576;9.934;2022-08-19T10:47:26;30.03;;;24.50;;
4317;SDS011;2172;53.576;9.934;2022-08-19T10:49:54;32.57;;;23.70;;
4317;SDS011;2172;53.576;9.934;2022-08-19T10:52:40;32.10;;;24.17;;
4317;SDS011;2172;53.576;9.934;2022-08-19T10:55:08;27.90;;;21.53;;
4317;SDS011;2172;53.576;9.934;2022-08-19T10:57:53;31.33;;;23.33;;
4317;SDS011;2172;53.576;9.934;2022-08-19T11:00:22;31.67;;;23.40;;
4317;SDS011;2172;53.576;9.934;2022-08-19T11:02:52;33.27;;;23.27;;
4317;SDS011;2172;53.576;9.934;2022-08-19T11:05:19;29.70;;;23.87;;
4317;SDS011;2172;53.576;9.934;2022-08-19T11:07:47;33.30;;;24.37;;
4317;SDS011;2172;53.576;9.934;2022-08-19T11:10:15;29.47;;;22.30;;
4317;SDS011;2172;53.576;9.934;2022-08-19T11:12:44;30.77;;;24.10;;
4317;SDS011;2172;53.576;9.934;2022-08-19T11:15:13;31.57;;;22.17;;
4317;SDS011;2172;53.576;9.934;2022-08-19T11:17:41;26.90;;;20.97;;
4317;SDS011;2172;53.576;9.934;2022-08-19T11:20:10;27.80;;;23.20;;
4317;SDS011;2172;53.576;9.934;2022-08-19T11:22:39;28.53;;;21.43;;
4317;SDS011;2172;53.576;9.934;2022-08-19T11:25:08;26.30;;;21.63;;
4317;SDS011;2172;53.576;9.934;2022-08-19T11:27:37;25.87;;;20.83;;
4317;SDS011;2172;53.576;9.934;2022-08-19T11:30:07;22.53;;;20.13;;
4317;SDS011;2172;53.576;9.934;2022-08-19T11:32:36;23.30;;;19.93;;
4317;SDS011;2172;53.576;9.934;2022-08-19T11:35:04;23.67;;;20.67;;
4317;SDS011;2172;53.576;9.934;2022-08-19T11:37:34;25.97;;;20.40;;
4317;SDS011;2172;53.576;9.934;2022-08-19T11:40:04;22.90;;;19.53;;
4317;SDS011;2172;53.576;9.934;2022-08-19T11:42:32;22.53;;;20.17;;
4317;SDS011;2172;53.576;9.934;2022-08-19T11:45:17;26.10;;;19.50;;
4317;SDS011;2172;53.576;9.934;2022-08-19T11:47:45;23.23;;;20.07;;
4317;SDS011;2172;53.576;9.934;2022-08-19T11:50:13;24.53;;;18.83;;
4317;SDS011;2172;53.576;9.934;2022-08-19T11:52:42;26.67;;;22.40;;
4317;SDS011;2172;53.576;9.934;2022-08-19T11:55:10;21.23;;;18.83;;
4317;SDS011;2172;53.576;9.934;2022-08-19T11:57:38;22.77;;;18.80;;
4317;SDS011;2172;53.576;9.934;2022-08-19T12:00:06;23.87;;;20.53;;
4317;SDS011;2172;53.576;9.934;2022-08-19T12:02:36;21.03;;;17.77;;
4317;SDS011;2172;53.576;9.934;2022-08-19T12:05:04;22.67;;;19.30;;
4317;SDS011;2172;53.576;9.934;2022-08-19T12:07:33;23.67;;;20.20;;
4317;SDS011;2172;53.576;9.934;2022-08-19T12:10:02;21.83;;;19.40;;
4317;SDS011;2172;53.576;9.934;2022-08-19T12:12:31;22.57;;;18.90;;
4317;SDS011;2172;53.576;9.934;2022-08-19T12:14:58;24.87;;;19.70;;
4317;SDS011;2172;53.576;9.934;2022-08-19T12:17:26;22.03;;;19.33;;
4317;SDS011;2172;53.576;9.934;2022-08-19T12:19:56;20.40;;;18.13;;
4317;SDS011;2172;53.576;9.934;2022-08-19T12:22:23;22.57;;;18.37;;
4317;SDS011;2172;53.576;9.934;2022-08-19T12:24:51;20.30;;;18.30;;
4317;SDS011;2172;53.576;9.934;2022-08-19T12:27:21;25.50;;;19.17;;
4317;SDS011;2172;53.576;9.934;2022-08-19T12:29:49;17.80;;;15.57;;
4317;SDS011;2172;53.576;9.934;2022-08-19T12:32:16;17.93;;;16.13;;
4317;SDS011;2172;53.576;9.934;2022-08-19T12:34:43;20.00;;;17.87;;
4317;SDS011;2172;53.576;9.934;2022-08-19T12:37:12;20.97;;;18.70;;
4317;SDS011;2172;53.576;9.934;2022-08-19T12:39:41;21.37;;;19.07;;
4317;SDS011;2172;53.576;9.934;2022-08-19T12:42:09;20.93;;;18.77;;
4317;SDS011;2172;53.576;9.934;2022-08-19T12:44:39;20.90;;;19.00;;
4317;SDS011;2172;53.576;9.934;2022-08-19T12:47:08;19.23;;;17.30;;
4317;SDS011;2172;53.576;9.934;2022-08-19T12:49:36;21.10;;;19.07;;
4317;SDS011;2172;53.576;9.934;2022-08-19T12:52:05;18.97;;;17.07;;
4317;SDS011;2172;53.576;9.934;2022-08-19T12:54:33;19.40;;;17.40;;
4317;SDS011;2172;53.576;9.934;2022-08-19T12:57:04;26.77;;;19.53;;
4317;SDS011;2172;53.576;9.934;2022-08-19T12:59:33;21.47;;;17.20;;
4317;SDS011;2172;53.576;9.934;2022-08-19T13:02:03;18.23;;;16.43;;
4317;SDS011;2172;53.576;9.934;2022-08-19T13:04:31;17.97;;;16.23;;
4317;SDS011;2172;53.576;9.934;2022-08-19T13:07:01;17.93;;;16.33;;
4317;SDS011;2172;53.576;9.934;2022-08-19T13:09:28;18.37;;;16.47;;
4317;SDS011;2172;53.576;9.934;2022-08-19T13:11:56;17.40;;;15.57;;
4317;SDS011;2172;53.576;9.934;2022-08-19T13:14:23;21.80;;;18.50;;
4317;SDS011;2172;53.576;9.934;2022-08-19T13:16:50;19.37;;;17.43;;
4317;SDS011;2172;53.576;9.934;2022-08-19T13:19:19;24.90;;;22.43;;
4317;SDS011;2172;53.576;9.934;2022-08-19T13:21:49;20.37;;;18.40;;
4317;SDS011;2172;53.576;9.934;2022-08-19T13:24:17;20.30;;;18.20;;
4317;SDS011;2172;53.576;9.934;2022-08-19T13:26:44;22.30;;;20.23;;
4317;SDS011;2172;53.576;9.934;2022-08-19T13:29:12;22.20;;;20.00;;
4317;SDS011;2172;53.576;9.934;2022-08-19T13:31:57;19.30;;;17.37;;
4317;SDS011;2172;53.576;9.934;2022-08-19T13:34:44;19.80;;;17.93;;
4317;SDS011;2172;53.576;9.934;2022-08-19T13:37:11;21.00;;;18.67;;
4317;SDS011;2172;53.576;9.934;2022-08-19T13:39:39;20.37;;;18.30;;
4317;SDS011;2172;53.576;9.934;2022-08-19T13:42:07;20.77;;;18.77;;
4317;SDS011;2172;53.576;9.934;2022-08-19T13:44:35;17.93;;;16.33;;
4317;SDS011;2172;53.576;9.934;2022-08-19T13:47:03;18.37;;;16.57;;
4317;SDS011;2172;53.576;9.934;2022-08-19T13:49:32;19.83;;;17.93;;
4317;SDS011;2172;53.576;9.934;2022-08-19T13:52:02;19.67;;;17.67;;
4317;SDS011;2172;53.576;9.934;2022-08-19T13:54:30;22.77;;;18.40;;
4317;SDS011;2172;53.576;9.934;2022-08-19T13:56:58;20.40;;;17.60;;
4317;SDS011;2172;53.576;9.934;2022-08-19T13:59:25;19.70;;;17.90;;
4317;SDS011;2172;53.576;9.934;2022-08-19T14:01:56;22.63;;;19.97;;
4317;SDS011;2172;53.576;9.934;2022-08-19T14:04:24;21.13;;;19.13;;
4317;SDS011;2172;53.576;9.934;2022-08-19T14:06:52;22.67;;;20.40;;
4317;SDS011;2172;53.576;9.934;2022-08-19T14:09:21;20.40;;;18.50;;
4317;SDS011;2172;53.576;9.934;2022-08-19T14:11:48;21.80;;;19.57;;
4317;SDS011;2172;53.576;9.934;2022-08-19T14:14:16;22.57;;;20.37;;
4317;SDS011;2172;53.576;9.934;2022-08-19T14:16:44;24.70;;;22.07;;
4317;SDS011;2172;53.576;9.934;2022-08-19T14:19:11;21.70;;;19.60;;
4317;SDS011;2172;53.576;9.934;2022-08-19T14:21:38;21.53;;;19.40;;
4317;SDS011;2172;53.576;9.934;2022-08-19T14:24:07;21.63;;;19.63;;
4317;SDS011;2172;53.576;9.934;2022-08-19T14:26:36;21.87;;;19.73;;
4317;SDS011;2172;53.576;9.934;2022-08-19T14:29:04;20.47;;;18.47;;
4317;SDS011;2172;53.576;9.934;2022-08-19T14:31:31;20.60;;;18.50;;
4317;SDS011;2172;53.576;9.934;2022-08-19T14:33:59;20.17;;;18.17;;
4317;SDS011;2172;53.576;9.934;2022-08-19T14:36:26;23.40;;;18.60;;
4317;SDS011;2172;53.576;9.934;2022-08-19T14:38:54;21.27;;;19.37;;
4317;SDS011;2172;53.576;9.934;2022-08-19T14:41:24;19.00;;;17.20;;
4317;SDS011;2172;53.576;9.934;2022-08-19T14:43:53;21.37;;;19.37;;
4317;SDS011;2172;53.576;9.934;2022-08-19T14:46:21;20.00;;;18.17;;
4317;SDS011;2172;53.576;9.934;2022-08-19T14:48:50;21.63;;;19.43;;
4317;SDS011;2172;53.576;9.934;2022-08-19T14:51:18;22.37;;;20.37;;
4317;SDS011;2172;53.576;9.934;2022-08-19T14:53:48;20.20;;;18.17;;
4317;SDS011;2172;53.576;9.934;2022-08-19T14:56:17;19.20;;;17.07;;
4317;SDS011;2172;53.576;9.934;2022-08-19T14:58:46;21.00;;;19.20;;
4317;SDS011;2172;53.576;9.934;2022-08-19T15:01:18;18.57;;;16.87;;